Portada
METAR-TAF:

METAR-TAF

Aeropuertos :

Schwäbisch Hall, Alemania

latitud: 49-07-06N, longitud: 9-47-02E, altitud: 398 m

Observación

El informe se hizo hace 37 minutos, a las 05:50 UTC
Viento 2 kt con dirección variable
Temperatura 11°C
Humedad 94%
Presión 1007 hPa
Visibilidad 10 km o más

METAR: EDTY 070550Z AUTO VRB02KT 9999 // BKN045/// BKN061/// OVC088/// 11/10 Q1007

Hora: 08:27 (06:27 UTC)

Pronóstico

El informe se hizo hace 16 horas y 27 minutos, a las 14:00 UTC
Pronóstico válido del 06 a las 15 UTC al 06 a las 24 UTC
Viento 10 kt del oeste
Visibilidad 10 km o más
Escasas nubes a una altura de 2000 ft
Cielo nuboso a una altura de 4500 ft
Evolucionando progresivamente
del 06 a las 18 UTC al 06 a las 20 UTC
Viento 3 kt del sur-suroeste

TAF: EDTY 061400Z 0615/0624 26010KT 9999 FEW020 BKN045 BECMG 0618/0620 21003KT

Observaciones y pronósticos meteorológicos de más de 4000 aeropuertos (mensajes METAR y TAF).

Los puntos amarillos y rojos representan las estaciones disponibles.

Ponga el ratón en el punto deseado para ver el nombre de la estación.

Haga clic para ver las observaciones y los pronósticos meteorológicos.

Para cambiar el mapa : haga clic en los botones verdes con una cruz de color negro para hacer un zoom, en el botón verde con un guión para alejar o en las flechas verdes para mapas adyacentes.


METAR-TAF: